Potterville, Michigan
Current Conditions -  °F | °C
As of 3:15 PM on Saturday 25 Oct 2014 (Local Time) from KFPK Reporting Station
Clear Clear  
Wind Chill: 67°   Ceiling: Unl
Heat Index: 67°   Visibility: 10mi
Dew Point: 35°   Wind: 18mph
Humidity: 30%   Direction: 270°W
Pressure: 29.78"   Gusts: 26mph
Location:  42.63°N, 84.74°W
Report Text: KFPK 251915Z AUTO 27016G23KT 10SM CLR 20/02 A2978 RMK AO2 T01960015
Loading
Personal Weather Stations






























Interactive Weather Map
Tropical Storm Tracking
New forecast layout! Learn more

10-Day Weather Forecast

Advertisements
Track Severe Weather on mobile